Menu Close Menu
Station Historical Data
Daily Summary for April 20, 2017 Units:  English    Metric   Both
« Previous Day
Next Day »
Daily Weekly Monthly Yearly Custom
  High: Low: Average:
Temperature: 85.2 °F 62.7 °F 71.5 °F
Dew Point: 65.7 °F 59.4 °F 61.7 °F
Humidity: 91% 44% 73%
Wind Speed: 1.0mph 0.0mph 0.1mph
Wind Gust: 5.0mph - -
Wind- - WSW
Pressure: 30.24 in 30.06 in -
Precipitation: 0.00 in    
Historical Graphs
 
 
Tabular Data for April 20, 2017
Time Temperature Dew Point Pressure Wind Wind Speed Wind Gust Humidity Rainfall Rate (Hourly) solar Conditions
00:00 67.0 °F 62.4 °F 30.24 in Calm   1.0 mph 85% 0.00 in WeatherDisplay:10.37 W/m2 SCT
00:15 66.9 °F 62.2 °F 30.23 in Calm   1.0 mph 85% 0.00 in WeatherDisplay:10.37 W/m2 SCT
00:30 66.7 °F 62.0 °F 30.23 in Calm   1.0 mph 85% 0.00 in WeatherDisplay:10.37 W/m2 SCT
00:45 66.5 °F 62.2 °F 30.23 in Calm   1.0 mph 86% 0.00 in WeatherDisplay:10.37 W/m2 SCT
01:00 66.3 °F 62.0 °F 30.22 in Calm   1.0 mph 86% 0.00 in WeatherDisplay:10.37 W/m2 SCT
01:15 66.2 °F 61.9 °F 30.22 in Calm   1.0 mph 86% 0.00 in WeatherDisplay:10.37 W/m2 SCT
01:30 65.9 °F 62.0 °F 30.22 in Calm   1.0 mph 87% 0.00 in WeatherDisplay:10.37 W/m2 SCT
01:45 65.7 °F 61.7 °F 30.21 in Calm   1.0 mph 87% 0.00 in WeatherDisplay:10.37 W/m2 SCT
02:00 65.5 °F 61.5 °F 30.21 in WNW 1.0 mph 1.0 mph 87% 0.00 in WeatherDisplay:10.37 W/m2 SCT
02:15 65.2 °F 61.6 °F 30.20 in Calm   2.0 mph 88% 0.00 in WeatherDisplay:10.37 W/m2 SCT
02:30 65.0 °F 61.4 °F 30.20 in Calm   1.0 mph 88% 0.00 in WeatherDisplay:10.37 W/m2 SCT
02:45 64.9 °F 61.6 °F 30.20 in Calm   2.0 mph 89% 0.00 in WeatherDisplay:10.37 W/m2 SCT
03:00 64.9 °F 61.6 °F 30.20 in Calm   1.0 mph 89% 0.00 in WeatherDisplay:10.37 W/m2 SCT
03:15 64.8 °F 61.5 °F 30.20 in Calm   1.0 mph 89% 0.00 in WeatherDisplay:10.37 W/m2 SCT
03:30 64.0 °F 60.4 °F 30.20 in Calm   1.0 mph 88% 0.00 in WeatherDisplay:10.37 W/m2 SCT
03:45 64.0 °F 60.4 °F 30.21 in Calm     88% 0.00 in WeatherDisplay:10.37 W/m2 SCT
04:00 64.0 °F 60.4 °F 30.21 in Calm     88% 0.00 in WeatherDisplay:10.37 W/m2 SCT
04:15 64.0 °F 60.4 °F 30.21 in Calm     88% 0.00 in WeatherDisplay:10.37 W/m2 SCT
04:30 64.0 °F 60.4 °F 30.20 in Calm     88% 0.00 in WeatherDisplay:10.37 W/m2 SCT
04:45 64.0 °F 60.4 °F 30.21 in Calm     88% 0.00 in WeatherDisplay:10.37 W/m2 SCT
05:00 64.0 °F 60.4 °F 30.21 in Calm     88% 0.00 in WeatherDisplay:10.37 W/m2 SCT
05:15 64.0 °F 60.4 °F 30.21 in Calm     88% 0.00 in WeatherDisplay:10.37 W/m2 SCT
05:30 64.0 °F 60.4 °F 30.21 in Calm     88% 0.00 in WeatherDisplay:10.37 W/m2 SCT
05:45 64.0 °F 60.4 °F 30.21 in Calm     88% 0.00 in WeatherDisplay:10.37 W/m2 SCT
06:00 64.0 °F 60.4 °F 30.21 in Calm     88% 0.00 in WeatherDisplay:10.37 W/m2 SCT
06:15 64.0 °F 60.4 °F 30.21 in Calm     88% 0.00 in WeatherDisplay:10.37 W/m2 SCT
06:30 64.0 °F 60.4 °F 30.21 in Calm     88% 0.00 in WeatherDisplay:10.37 W/m2 SCT
06:45 64.0 °F 60.4 °F 30.21 in Calm     88% 0.00 in WeatherDisplay:10.37 W/m2 SCT
07:00 64.0 °F 60.4 °F 30.21 in Calm     88% 0.00 in WeatherDisplay:10.37 W/m2 SCT
07:15 64.0 °F 60.4 °F 30.22 in Calm     88% 0.00 in WeatherDisplay:10.37 W/m2 SCT
07:30 64.0 °F 60.4 °F 30.22 in Calm     88% 0.00 in WeatherDisplay:10.37 W/m2 SCT
07:45 64.0 °F 60.4 °F 30.23 in Calm     88% 0.00 in WeatherDisplay:10.37 W/m2 SCT
08:00 64.0 °F 60.4 °F 30.23 in Calm     88% 0.00 in WeatherDisplay:10.37 W/m2 SCT
08:15 62.7 °F 60.1 °F 30.23 in Calm     91% 0.00 in WeatherDisplay:10.37 W/m2 SCT
08:30 63.4 °F 60.4 °F 30.23 in Calm   1.0 mph 90% 0.00 in WeatherDisplay:10.37 W/m2 SCT
08:45 64.3 °F 61.0 °F 30.23 in Calm   2.0 mph 89% 0.00 in WeatherDisplay:10.37 W/m2 SCT
09:00 66.2 °F 61.9 °F 30.22 in Calm   1.0 mph 86% 0.00 in WeatherDisplay:10.37 W/m2 SCT
09:15 67.8 °F 62.4 °F 30.22 in Calm   1.0 mph 83% 0.00 in WeatherDisplay:10.37 W/m2 SCT
09:30 68.4 °F 62.0 °F 30.22 in Calm   2.0 mph 80% 0.00 in WeatherDisplay:10.37 W/m2 SCT
09:45 69.3 °F 62.1 °F 30.22 in Calm   1.0 mph 78% 0.00 in WeatherDisplay:10.37 W/m2 SCT
10:00 71.1 °F 62.7 °F 30.21 in NW 1.0 mph 3.0 mph 75% 0.00 in WeatherDisplay:10.37 W/m2 SCT
10:15 72.2 °F 61.9 °F 30.21 in Calm   3.0 mph 70% 0.00 in WeatherDisplay:10.37 W/m2 SCT
10:30 72.7 °F 62.3 °F 30.21 in Calm   2.0 mph 70% 0.00 in WeatherDisplay:10.37 W/m2 SCT
10:45 73.1 °F 61.9 °F 30.20 in WNW 1.0 mph 2.0 mph 68% 0.00 in WeatherDisplay:10.37 W/m2 SCT
11:00 74.2 °F 62.5 °F 30.21 in Calm   5.0 mph 67% 0.00 in WeatherDisplay:10.37 W/m2 SCT
11:15 75.9 °F 62.8 °F 30.21 in Calm   2.0 mph 64% 0.00 in WeatherDisplay:10.37 W/m2 SCT
11:30 76.8 °F 62.3 °F 30.20 in Calm   2.0 mph 61% 0.00 in WeatherDisplay:10.37 W/m2 SCT
11:45 77.3 °F 62.8 °F 30.20 in Calm   2.0 mph 61% 0.00 in WeatherDisplay:10.37 W/m2 SCT
12:00 77.8 °F 62.3 °F 30.19 in Calm   3.0 mph 59% 0.00 in WeatherDisplay:10.37 W/m2 SCT
12:15 79.3 °F 62.2 °F 30.19 in NNW 1.0 mph 2.0 mph 56% 0.00 in WeatherDisplay:10.37 W/m2 SCT
12:30 81.2 °F 64.0 °F 30.18 in Calm   1.0 mph 56% 0.00 in WeatherDisplay:10.37 W/m2 SCT
12:45 81.8 °F 63.5 °F 30.17 in Calm   2.0 mph 54% 0.00 in WeatherDisplay:10.37 W/m2 SCT
13:00 82.9 °F 61.8 °F 30.17 in North 1.0 mph 3.0 mph 49% 0.00 in WeatherDisplay:10.37 W/m2 SCT
13:15 83.5 °F 61.7 °F 30.16 in Calm   3.0 mph 48% 0.00 in WeatherDisplay:10.37 W/m2 SCT
13:30 84.4 °F 61.4 °F 30.15 in NW 1.0 mph 2.0 mph 46% 0.00 in WeatherDisplay:10.37 W/m2 SCT
13:45 85.2 °F 62.7 °F 30.14 in Calm   3.0 mph 47% 0.00 in WeatherDisplay:10.37 W/m2 SCT
14:00 84.5 °F 60.8 °F 30.14 in Calm   1.0 mph 45% 0.00 in WeatherDisplay:10.37 W/m2 SCT
14:15 83.2 °F 60.3 °F 30.13 in Calm   2.0 mph 46% 0.00 in WeatherDisplay:10.37 W/m2 SCT
14:30 84.0 °F 59.7 °F 30.12 in NW 1.0 mph 2.0 mph 44% 0.00 in WeatherDisplay:10.37 W/m2 SCT
14:45 84.1 °F 59.8 °F 30.11 in Calm   2.0 mph 44% 0.00 in WeatherDisplay:10.37 W/m2 SCT
15:00 83.8 °F 60.8 °F 30.11 in Calm   2.0 mph 46% 0.00 in WeatherDisplay:10.37 W/m2 SCT
15:15 83.6 °F 60.0 °F 30.10 in NW 1.0 mph 2.0 mph 45% 0.00 in WeatherDisplay:10.37 W/m2 SCT
15:30 82.6 °F 59.7 °F 30.10 in Calm   1.0 mph 46% 0.00 in WeatherDisplay:10.37 W/m2 SCT
15:45 81.5 °F 59.4 °F 30.09 in Calm   1.0 mph 47% 0.00 in WeatherDisplay:10.37 W/m2 SCT
16:15 74.9 °F 65.3 °F 30.08 in Calm   2.0 mph 72% 0.00 in WeatherDisplay:10.37 W/m2 SCT
16:30 74.8 °F 64.8 °F 30.08 in Calm   1.0 mph 71% 0.00 in WeatherDisplay:10.37 W/m2 SCT
16:45 75.9 °F 65.0 °F 30.07 in Calm     69% 0.00 in WeatherDisplay:10.37 W/m2 SCT
17:00 77.2 °F 63.2 °F 30.07 in Calm     62% 0.00 in WeatherDisplay:10.37 W/m2 SCT
17:15 77.9 °F 65.7 °F 30.07 in Calm     66% 0.00 in WeatherDisplay:10.37 W/m2 SCT
17:30 78.3 °F 63.7 °F 30.06 in Calm     61% 0.00 in WeatherDisplay:10.37 W/m2 SCT
17:45 78.1 °F 63.6 °F 30.06 in Calm     61% 0.00 in WeatherDisplay:10.37 W/m2 SCT
18:00 78.3 °F 63.3 °F 30.06 in Calm     60% 0.00 in WeatherDisplay:10.37 W/m2 SCT
18:15 78.3 °F 64.2 °F 30.06 in Calm     62% 0.00 in WeatherDisplay:10.37 W/m2 SCT
18:30 78.1 °F 64.5 °F 30.06 in Calm   1.0 mph 63% 0.00 in WeatherDisplay:10.37 W/m2 SCT
18:45 77.6 °F 62.6 °F 30.06 in Calm   1.0 mph 60% 0.00 in WeatherDisplay:10.37 W/m2 SCT
19:00 76.7 °F 60.8 °F 30.06 in Calm   1.0 mph 58% 0.00 in WeatherDisplay:10.37 W/m2 SCT
19:15 75.8 °F 60.0 °F 30.06 in North 1.0 mph   58% 0.00 in WeatherDisplay:10.37 W/m2 SCT
19:30 74.9 °F 60.5 °F 30.06 in Calm     61% 0.00 in WeatherDisplay:10.37 W/m2 SCT
19:45 74.0 °F 60.6 °F 30.06 in Calm     63% 0.00 in WeatherDisplay:10.37 W/m2 SCT
20:00 73.2 °F 61.2 °F 30.06 in Calm     66% 0.00 in WeatherDisplay:10.37 W/m2 SCT
20:15 72.5 °F 61.3 °F 30.06 in Calm     68% 0.00 in WeatherDisplay:10.37 W/m2 SCT
20:30 71.8 °F 61.1 °F 30.06 in Calm     69% 0.00 in WeatherDisplay:10.37 W/m2 SCT
20:45 71.3 °F 61.4 °F 30.07 in Calm     71% 0.00 in WeatherDisplay:10.37 W/m2 SCT
21:00 70.7 °F 61.6 °F 30.07 in Calm     73% 0.00 in WeatherDisplay:10.37 W/m2 SCT
21:15 70.0 °F 61.7 °F 30.07 in Calm     75% 0.00 in WeatherDisplay:10.37 W/m2 SCT
21:45 69.0 °F 61.5 °F 30.08 in Calm     77% 0.00 in WeatherDisplay:10.37 W/m2 SCT
22:00 68.6 °F 61.8 °F 30.08 in Calm     79% 0.00 in WeatherDisplay:10.37 W/m2 SCT
22:15 68.5 °F 62.1 °F 30.08 in Calm     80% 0.00 in WeatherDisplay:10.37 W/m2 SCT
22:45 69.7 °F 62.5 °F 30.09 in Calm     78% 0.00 in WeatherDisplay:10.37 W/m2 SCT
23:00 69.6 °F 62.4 °F 30.08 in Calm     78% 0.00 in WeatherDisplay:10.37 W/m2 SCT
23:15 69.5 °F 62.3 °F 30.08 in Calm     78% 0.00 in WeatherDisplay:10.37 W/m2 SCT
23:30 69.5 °F 62.3 °F 30.08 in Calm     78% 0.00 in WeatherDisplay:10.37 W/m2 SCT
Piedmont Bend
Compliments of Weather Underground - 4 mb